Time;durP1;ratioP1;P1;durP2;ratioP2;P2;SDS_P1;SDS_P2;PMS_P1;PMS_P2;Temp;Humidity;BMP_temperature;BMP_pressure;BME280_temperature;BME280_humidity;BME280_pressure;Samples;Min_cycle;Max_cycle;Signal;HPM_P1;HPM_P2
2021/07/01 00:00:17;;;;;;;16.80;12.97;;;15.20;99.90;;;;;;5097138;28;20184;-71
2021/07/01 00:02:43;;;;;;;19.40;14.60;;;15.40;99.90;;;;;;5098144;28;20485;-71
2021/07/01 00:05:12;;;;;;;17.17;13.23;;;15.40;99.90;;;;;;5101068;28;20450;-71
2021/07/01 00:07:38;;;;;;;17.97;14.00;;;15.50;99.90;;;;;;5097348;28;20948;-71
2021/07/01 00:10:17;;;;;;;16.70;13.50;;;15.60;99.90;;;;;;5097102;28;20422;-71
2021/07/01 00:12:43;;;;;;;16.97;12.33;;;15.70;99.90;;;;;;5077638;28;20412;-71
2021/07/01 00:15:13;;;;;;;16.40;13.00;;;15.70;99.90;;;;;;5080814;28;20466;-70
2021/07/01 00:17:40;;;;;;;15.90;12.67;;;15.50;99.90;;;;;;5101091;28;20217;-71
2021/07/01 00:20:07;;;;;;;17.10;11.70;;;15.60;99.90;;;;;;5102081;28;20507;-71
2021/07/01 00:22:32;;;;;;;17.13;12.50;;;15.60;99.90;;;;;;5099864;28;20493;-71
2021/07/01 00:24:58;;;;;;;13.70;12.10;;;15.70;99.90;;;;;;5100947;28;20423;-72
2021/07/01 00:27:24;;;;;;;15.00;12.10;;;15.70;99.90;;;;;;5097382;28;20213;-71
2021/07/01 00:29:49;;;;;;;16.70;13.80;;;15.80;99.90;;;;;;5097303;28;20242;-71
2021/07/01 00:32:15;;;;;;;18.77;14.47;;;15.90;99.90;;;;;;5102456;28;20176;-71
2021/07/01 00:34:40;;;;;;;21.27;14.47;;;15.90;99.90;;;;;;5100628;28;20230;-71
2021/07/01 00:37:06;;;;;;;15.73;13.03;;;15.80;99.90;;;;;;5100598;28;20180;-71
2021/07/01 00:39:32;;;;;;;14.60;11.77;;;15.70;99.90;;;;;;5098527;28;20173;-71
2021/07/01 00:41:57;;;;;;;16.60;12.73;;;15.60;99.90;;;;;;5095945;28;20267;-71
2021/07/01 00:44:23;;;;;;;17.30;13.40;;;15.50;99.90;;;;;;5097515;28;20179;-69
2021/07/01 00:46:48;;;;;;;17.30;13.33;;;15.50;99.90;;;;;;5102501;28;20220;-69
2021/07/01 00:49:14;;;;;;;15.23;12.20;;;15.50;99.90;;;;;;5100694;28;20194;-69
2021/07/01 00:51:40;;;;;;;14.20;11.27;;;15.30;99.90;;;;;;5088791;28;20550;-70
2021/07/01 00:54:06;;;;;;;15.00;11.77;;;15.30;99.90;;;;;;5082861;28;20173;-70
2021/07/01 00:56:37;;;;;;;15.53;11.37;;;15.40;99.90;;;;;;5081017;28;20182;-70
2021/07/01 00:59:03;;;;;;;15.97;11.57;;;15.40;99.90;;;;;;5081281;28;20458;-70
2021/07/01 01:01:29;;;;;;;16.73;11.70;;;15.40;99.90;;;;;;5076424;28;20439;-71
2021/07/01 01:03:55;;;;;;;17.30;12.40;;;15.30;99.90;;;;;;5074996;28;20423;-71
2021/07/01 01:06:21;;;;;;;18.43;12.60;;;15.10;99.90;;;;;;5073852;28;20551;-72
2021/07/01 01:08:47;;;;;;;15.73;13.23;;;15.10;99.90;;;;;;5075654;28;20197;-72
2021/07/01 01:11:12;;;;;;;18.27;13.17;;;15.10;99.90;;;;;;5077760;28;20439;-70
2021/07/01 01:13:38;;;;;;;16.40;12.87;;;15.20;99.90;;;;;;5079024;28;20201;-69
2021/07/01 01:16:04;;;;;;;16.77;13.00;;;15.20;99.90;;;;;;5078083;28;20283;-72
2021/07/01 01:18:30;;;;;;;14.87;11.43;;;15.30;99.90;;;;;;5078404;28;20260;-72
2021/07/01 01:20:58;;;;;;;17.73;12.90;;;15.20;99.90;;;;;;5078423;28;20817;-71
2021/07/01 01:23:24;;;;;;;15.37;12.57;;;15.30;99.90;;;;;;5078569;28;20427;-70
2021/07/01 01:25:52;;;;;;;17.03;11.50;;;15.30;99.90;;;;;;5077976;28;20428;-71
2021/07/01 01:28:18;;;;;;;16.03;12.10;;;15.40;99.90;;;;;;5079023;28;20514;-71
2021/07/01 01:30:44;;;;;;;16.00;11.60;;;15.40;99.90;;;;;;5078122;28;20741;-71
2021/07/01 01:33:10;;;;;;;16.87;11.97;;;15.40;99.90;;;;;;5077066;28;20472;-71
2021/07/01 01:35:37;;;;;;;16.20;11.63;;;15.40;99.90;;;;;;5077810;28;20879;-71
2021/07/01 01:38:05;;;;;;;16.10;12.13;;;15.30;99.90;;;;;;5077941;28;20177;-71
2021/07/01 01:40:31;;;;;;;17.40;12.67;;;15.10;99.90;;;;;;5078797;28;20928;-71
2021/07/01 01:42:56;;;;;;;14.63;11.37;;;15.10;99.90;;;;;;5076658;28;20400;-71
2021/07/01 01:45:22;;;;;;;13.40;10.20;;;15.00;99.90;;;;;;5077646;28;20193;-71
2021/07/01 01:47:49;;;;;;;16.63;11.70;;;14.90;99.90;;;;;;5077547;28;20253;-71
2021/07/01 01:50:22;;;;;;;15.13;10.90;;;14.80;99.90;;;;;;5078320;28;20555;-71
2021/07/01 01:52:48;;;;;;;13.77;10.90;;;14.80;99.90;;;;;;5077260;28;20442;-71
2021/07/01 01:55:15;;;;;;;14.10;10.80;;;15.00;99.90;;;;;;5081081;28;20492;-71
2021/07/01 01:57:46;;;;;;;14.70;10.57;;;15.00;99.90;;;;;;5100365;28;20430;-71
2021/07/01 02:00:15;;;;;;;15.17;11.40;;;15.10;99.90;;;;;;5097722;28;20411;-71
2021/07/01 02:02:40;;;;;;;12.87;10.93;;;15.20;99.90;;;;;;5103307;28;20463;-71
2021/07/01 02:05:08;;;;;;;15.10;11.13;;;15.00;99.90;;;;;;5097556;28;20427;-71
2021/07/01 02:07:34;;;;;;;16.80;11.83;;;15.10;99.90;;;;;;5096789;28;20660;-71
2021/07/01 02:10:03;;;;;;;14.90;10.37;;;15.10;99.90;;;;;;5096783;28;20418;-71
2021/07/01 02:12:29;;;;;;;16.50;11.60;;;15.10;99.90;;;;;;5095270;28;20411;-70
2021/07/01 02:14:55;;;;;;;17.50;10.53;;;15.10;99.90;;;;;;5096506;28;20407;-71
2021/07/01 02:17:21;;;;;;;12.50;10.70;;;15.20;99.90;;;;;;5095278;28;20438;-71
2021/07/01 02:19:46;;;;;;;12.00;9.93;;;15.40;99.90;;;;;;5096181;28;20421;-71
2021/07/01 02:22:13;;;;;;;16.60;11.73;;;15.50;99.90;;;;;;5095134;28;20213;-71
2021/07/01 02:24:38;;;;;;;13.32;11.18;;;15.50;99.90;;;;;;5098975;28;20412;-71
2021/07/01 02:27:05;;;;;;;11.93;10.03;;;15.50;99.90;;;;;;5094426;28;20217;-71
2021/07/01 02:29:30;;;;;;;11.73;10.30;;;15.60;99.90;;;;;;5076031;28;20188;-71
2021/07/01 02:31:56;;;;;;;11.20;9.13;;;15.60;99.90;;;;;;5076902;28;20420;-71
2021/07/01 02:34:21;;;;;;;12.20;9.80;;;15.60;99.90;;;;;;5075529;28;20181;-71
2021/07/01 02:36:47;;;;;;;11.47;9.43;;;15.50;99.90;;;;;;5075646;28;20206;-71
2021/07/01 02:39:12;;;;;;;10.90;9.70;;;15.30;99.90;;;;;;5075952;28;20177;-71
2021/07/01 02:41:38;;;;;;;10.17;9.10;;;15.30;99.90;;;;;;5076991;28;20177;-71
2021/07/01 02:44:04;;;;;;;11.73;10.53;;;15.40;99.90;;;;;;5075203;28;20178;-71
2021/07/01 02:46:30;;;;;;;11.97;9.80;;;15.40;99.90;;;;;;5076016;28;20208;-71
2021/07/01 02:48:56;;;;;;;13.40;9.90;;;15.40;99.90;;;;;;5075597;28;20419;-72
2021/07/01 02:51:22;;;;;;;12.03;9.37;;;15.50;99.90;;;;;;5076861;28;20416;-71
2021/07/01 02:53:47;;;;;;;14.67;10.90;;;15.40;99.90;;;;;;5075428;28;20782;-71
2021/07/01 02:56:13;;;;;;;12.50;9.47;;;15.40;99.90;;;;;;5075261;28;20205;-71
2021/07/01 02:58:38;;;;;;;14.60;10.10;;;15.40;99.90;;;;;;5075779;28;20696;-71
2021/07/01 03:01:04;;;;;;;13.10;9.20;;;15.30;99.90;;;;;;5075368;28;20197;-71
2021/07/01 03:03:29;;;;;;;10.40;9.20;;;15.40;99.90;;;;;;5076343;28;20185;-71
2021/07/01 03:05:55;;;;;;;11.30;9.10;;;15.50;99.90;;;;;;5074856;28;20208;-71
2021/07/01 03:08:21;;;;;;;12.40;10.03;;;15.60;99.90;;;;;;5075272;28;20197;-71
2021/07/01 03:10:46;;;;;;;16.17;12.00;;;15.60;99.90;;;;;;5074535;28;20196;-71
2021/07/01 03:13:12;;;;;;;13.83;11.00;;;15.60;99.90;;;;;;5076314;28;20173;-71
2021/07/01 03:15:37;;;;;;;11.93;10.20;;;15.40;99.90;;;;;;5074875;28;20197;-70
2021/07/01 03:18:03;;;;;;;11.83;10.07;;;15.30;99.90;;;;;;5074789;28;20170;-71
2021/07/01 03:20:29;;;;;;;13.20;9.50;;;15.10;99.90;;;;;;5075356;28;20173;-72
2021/07/01 03:22:55;;;;;;;14.67;10.50;;;15.10;99.90;;;;;;5076032;28;20544;-71
2021/07/01 03:25:20;;;;;;;13.57;10.63;;;15.10;99.90;;;;;;5075103;28;20181;-71
2021/07/01 03:27:46;;;;;;;15.37;10.53;;;15.00;99.90;;;;;;5073198;28;20193;-71
2021/07/01 03:30:12;;;;;;;10.77;9.43;;;15.10;99.90;;;;;;5076844;28;20173;-71
2021/07/01 03:32:37;;;;;;;11.33;9.23;;;15.20;99.90;;;;;;5082567;28;20719;-71
2021/07/01 03:35:03;;;;;;;13.67;9.87;;;15.30;99.90;;;;;;5076134;28;20444;-71
2021/07/01 03:37:29;;;;;;;9.80;8.53;;;15.20;99.90;;;;;;5074431;28;20165;-71
2021/07/01 03:39:55;;;;;;;10.60;8.53;;;15.10;99.90;;;;;;5074827;28;20407;-71
2021/07/01 03:42:21;;;;;;;10.63;9.47;;;15.20;99.90;;;;;;5075077;28;20204;-71
2021/07/01 03:44:47;;;;;;;12.50;8.43;;;15.30;99.90;;;;;;5075551;28;20233;-71
2021/07/01 03:47:13;;;;;;;11.80;8.23;;;15.40;99.90;;;;;;5074985;28;20483;-71
2021/07/01 03:49:38;;;;;;;10.30;8.30;;;15.30;99.90;;;;;;5077082;28;20166;-71
2021/07/01 03:52:05;;;;;;;12.00;7.60;;;15.30;99.90;;;;;;5076838;28;20174;-71
2021/07/01 03:54:30;;;;;;;12.70;8.20;;;15.20;99.90;;;;;;5078009;28;20180;-71
2021/07/01 03:56:57;;;;;;;8.57;7.50;;;15.10;99.90;;;;;;5076287;28;20523;-71
2021/07/01 03:59:23;;;;;;;13.13;8.43;;;15.10;99.90;;;;;;5095636;28;20195;-71
2021/07/01 04:01:48;;;;;;;8.97;7.83;;;15.00;99.90;;;;;;5095209;28;20399;-71
2021/07/01 04:04:15;;;;;;;9.60;7.60;;;15.00;99.90;;;;;;5094482;28;20165;-71
2021/07/01 04:06:41;;;;;;;9.60;8.13;;;15.00;99.90;;;;;;5092425;28;20216;-71
2021/07/01 04:09:06;;;;;;;9.90;8.23;;;15.00;99.90;;;;;;5094442;28;20429;-71
2021/07/01 04:11:32;;;;;;;9.60;7.90;;;15.00;99.90;;;;;;5094358;28;20635;-71
2021/07/01 04:13:59;;;;;;;7.40;6.60;;;15.00;99.90;;;;;;5093736;28;20169;-71
2021/07/01 04:16:24;;;;;;;8.70;6.60;;;15.00;99.90;;;;;;5092597;28;20442;-72
2021/07/01 04:18:50;;;;;;;8.80;7.03;;;15.10;99.90;;;;;;5093976;28;20813;-71
2021/07/01 04:21:15;;;;;;;8.00;6.77;;;15.10;99.90;;;;;;5094121;28;20184;-71
2021/07/01 04:23:41;;;;;;;9.07;8.17;;;15.20;99.90;;;;;;5093657;28;20257;-71
2021/07/01 04:26:06;;;;;;;10.00;8.27;;;15.20;99.90;;;;;;5093927;28;20280;-71
2021/07/01 04:28:32;;;;;;;12.40;8.67;;;15.10;99.90;;;;;;5092001;28;20184;-71
2021/07/01 04:30:59;;;;;;;13.33;9.37;;;15.00;99.90;;;;;;5088211;28;20170;-71
2021/07/01 04:33:26;;;;;;;13.43;9.83;;;14.90;99.90;;;;;;5082081;28;20176;-71
2021/07/01 04:35:51;;;;;;;17.73;11.80;;;14.80;99.90;;;;;;5082522;28;20932;-71
2021/07/01 04:38:18;;;;;;;14.87;10.70;;;14.60;99.90;;;;;;5083261;28;20437;-72
2021/07/01 04:40:44;;;;;;;16.50;10.47;;;14.50;99.90;;;;;;5080712;28;20211;-71
2021/07/01 04:43:10;;;;;;;13.33;10.93;;;14.50;99.90;;;;;;5082274;28;20453;-71
2021/07/01 04:45:36;;;;;;;12.43;9.43;;;14.70;99.90;;;;;;5093538;28;20431;-69
2021/07/01 04:48:02;;;;;;;14.60;9.40;;;14.80;99.90;;;;;;5091607;28;20971;-70
2021/07/01 04:50:28;;;;;;;11.67;8.63;;;15.00;99.90;;;;;;5092494;28;20172;-70
2021/07/01 04:52:53;;;;;;;13.00;9.07;;;15.00;99.90;;;;;;5092522;28;20433;-70
2021/07/01 04:55:19;;;;;;;12.13;9.03;;;15.10;99.90;;;;;;5093242;28;20224;-70
2021/07/01 04:57:44;;;;;;;10.77;8.53;;;15.10;99.90;;;;;;5081829;28;20213;-70
2021/07/01 05:00:10;;;;;;;9.70;8.10;;;15.10;99.90;;;;;;5078723;28;20539;-70
2021/07/01 05:02:37;;;;;;;10.40;8.70;;;15.10;99.90;;;;;;5088870;28;20208;-70
2021/07/01 05:05:03;;;;;;;10.47;8.43;;;14.90;99.90;;;;;;5088465;28;20951;-71
2021/07/01 05:07:29;;;;;;;11.97;8.37;;;14.90;99.90;;;;;;5091857;28;20541;-70
2021/07/01 05:09:54;;;;;;;9.03;8.00;;;14.90;99.90;;;;;;5094033;28;21275;-71
2021/07/01 05:12:20;;;;;;;13.10;9.93;;;15.00;99.90;;;;;;5101131;28;20224;-70
2021/07/01 05:14:45;;;;;;;14.10;10.83;;;15.00;99.90;;;;;;5081610;28;20623;-71
2021/07/01 05:17:11;;;;;;;13.33;10.90;;;15.00;99.90;;;;;;5076588;28;20193;-72
2021/07/01 05:19:37;;;;;;;16.50;11.20;;;15.10;99.90;;;;;;5073539;28;20186;-71
2021/07/01 05:22:03;;;;;;;15.40;10.83;;;15.10;99.90;;;;;;5074345;28;20284;-71
2021/07/01 05:24:28;;;;;;;15.37;10.80;;;15.10;99.90;;;;;;5076146;28;20234;-70
2021/07/01 05:26:54;;;;;;;15.43;10.27;;;15.10;99.90;;;;;;5089331;28;20458;-71
2021/07/01 05:29:19;;;;;;;10.80;9.13;;;14.80;99.90;;;;;;5087997;28;20181;-71
2021/07/01 05:31:45;;;;;;;14.43;9.87;;;14.90;99.90;;;;;;5089495;28;20286;-71
2021/07/01 05:34:11;;;;;;;12.70;9.13;;;15.10;99.90;;;;;;5077624;28;20181;-72
2021/07/01 05:36:37;;;;;;;13.60;9.00;;;15.20;99.90;;;;;;5088743;28;20447;-71
2021/07/01 05:39:04;;;;;;;13.97;9.97;;;15.30;99.90;;;;;;5080069;28;20194;-71
2021/07/01 05:41:30;;;;;;;13.87;9.40;;;15.30;99.90;;;;;;5089619;28;20193;-71
2021/07/01 05:43:57;;;;;;;13.70;9.53;;;15.10;99.90;;;;;;5087386;28;20435;-70
2021/07/01 05:46:22;;;;;;;15.40;10.30;;;15.00;99.90;;;;;;5089474;28;20638;-70
2021/07/01 05:48:48;;;;;;;14.87;9.97;;;15.00;99.90;;;;;;5073291;28;20482;-70
2021/07/01 05:51:15;;;;;;;13.53;8.67;;;15.10;99.90;;;;;;5072108;28;20177;-71
2021/07/01 05:56:08;;;;;;;11.47;8.90;;;15.30;99.90;;;;;;5071794;28;20572;-72
2021/07/01 05:58:34;;;;;;;10.40;9.27;;;15.30;99.90;;;;;;5072954;28;21078;-71
2021/07/01 06:01:00;;;;;;;15.27;10.57;;;15.30;99.90;;;;;;5072857;28;20177;-71
2021/07/01 06:03:25;;;;;;;14.53;10.50;;;15.30;99.90;;;;;;5072475;28;20633;-72
2021/07/01 06:05:55;;;;;;;13.90;9.23;;;15.40;99.90;;;;;;5073269;28;20276;-71
2021/07/01 06:08:22;;;;;;;11.37;9.30;;;15.50;99.90;;;;;;5075985;28;20526;-71
2021/07/01 06:10:50;;;;;;;15.30;9.70;;;15.40;99.90;;;;;;5075261;28;20455;-71
2021/07/01 06:13:22;;;;;;;15.60;11.73;;;15.30;99.90;;;;;;5076087;28;20534;-71
2021/07/01 06:15:52;;;;;;;16.03;10.30;;;15.30;99.90;;;;;;5076532;28;20431;-72
2021/07/01 06:18:20;;;;;;;17.97;10.10;;;15.20;99.90;;;;;;5076167;28;20407;-71
2021/07/01 06:20:46;;;;;;;14.63;10.43;;;15.30;99.90;;;;;;5077133;28;20414;-70
2021/07/01 06:23:12;;;;;;;14.50;9.30;;;15.40;99.90;;;;;;5076207;28;20169;-71
2021/07/01 06:25:39;;;;;;;12.17;9.30;;;15.40;99.90;;;;;;5075700;28;20937;-71
2021/07/01 06:28:04;;;;;;;19.37;10.40;;;15.50;99.90;;;;;;5076222;28;20201;-72
2021/07/01 06:30:31;;;;;;;15.50;9.47;;;15.30;99.90;;;;;;5077472;28;20415;-72
2021/07/01 06:32:56;;;;;;;14.63;10.03;;;15.20;99.90;;;;;;5075678;28;20561;-72
2021/07/01 06:35:26;;;;;;;13.27;9.60;;;15.30;99.90;;;;;;5076188;28;20427;-72
2021/07/01 06:37:55;;;;;;;14.83;8.93;;;15.30;99.90;;;;;;5076178;28;20184;-72
2021/07/01 06:40:23;;;;;;;13.93;9.67;;;15.40;99.90;;;;;;5077117;28;20970;-72
2021/07/01 06:42:57;;;;;;;14.83;10.10;;;15.50;99.90;;;;;;5075847;28;20457;-71
2021/07/01 06:45:24;;;;;;;13.80;10.20;;;15.50;99.90;;;;;;5076052;28;20435;-71
2021/07/01 06:47:52;;;;;;;16.17;10.90;;;15.40;99.90;;;;;;5075323;28;20988;-72
2021/07/01 06:50:21;;;;;;;16.00;10.37;;;15.10;99.90;;;;;;5075738;28;20408;-72
2021/07/01 06:52:48;;;;;;;12.90;9.93;;;15.00;99.90;;;;;;5075345;28;20474;-70
2021/07/01 06:55:15;;;;;;;14.60;10.17;;;15.00;99.90;;;;;;5074505;28;20454;-71
2021/07/01 06:57:42;;;;;;;13.97;9.83;;;15.00;99.90;;;;;;5074680;28;20846;-72
2021/07/01 07:00:11;;;;;;;19.50;12.13;;;15.00;99.90;;;;;;5075251;28;20901;-72
2021/07/01 07:02:37;;;;;;;13.50;10.50;;;15.00;99.90;;;;;;5076298;28;20415;-71
2021/07/01 07:05:10;;;;;;;15.07;10.30;;;15.10;99.90;;;;;;5075403;28;20929;-73
2021/07/01 07:07:36;;;;;;;15.70;11.27;;;15.10;99.90;;;;;;5074030;28;20516;-71
2021/07/01 07:10:04;;;;;;;15.70;11.77;;;15.10;99.90;;;;;;5075273;28;20428;-71
2021/07/01 07:12:32;;;;;;;21.33;12.50;;;15.10;99.90;;;;;;5076302;28;20411;-71
2021/07/01 07:14:58;;;;;;;16.87;12.50;;;15.20;99.90;;;;;;5074976;28;20893;-71
2021/07/01 07:17:29;;;;;;;18.73;11.97;;;15.20;99.90;;;;;;5075045;28;20785;-71
2021/07/01 07:19:57;;;;;;;17.60;12.50;;;15.30;99.90;;;;;;5075220;28;20392;-71
2021/07/01 07:22:26;;;;;;;18.57;12.90;;;15.20;99.90;;;;;;5075229;28;20977;-71
2021/07/01 07:24:53;;;;;;;18.40;11.77;;;15.20;99.90;;;;;;5075819;28;20860;-71
2021/07/01 07:27:26;;;;;;;18.97;12.63;;;15.30;99.90;;;;;;5074719;28;20444;-71
2021/07/01 07:29:52;;;;;;;18.50;12.53;;;15.30;99.90;;;;;;5074622;28;20399;-71
2021/07/01 07:32:22;;;;;;;20.47;12.40;;;15.10;99.90;;;;;;5074375;28;20472;-71
2021/07/01 07:34:49;;;;;;;13.43;9.60;;;15.10;99.90;;;;;;5075881;28;20193;-71
2021/07/01 07:37:14;;;;;;;16.50;10.90;;;15.20;99.90;;;;;;5074526;28;20454;-71
2021/07/01 07:39:41;;;;;;;13.80;11.43;;;15.30;99.90;;;;;;5074387;28;20408;-71
2021/07/01 07:42:07;;;;;;;15.60;11.80;;;15.30;99.90;;;;;;5075176;28;20678;-71
2021/07/01 07:44:35;;;;;;;17.07;11.97;;;15.20;99.90;;;;;;5078111;28;20451;-71
2021/07/01 07:47:02;;;;;;;16.20;13.07;;;15.30;99.90;;;;;;5095542;28;20515;-71
2021/07/01 07:49:28;;;;;;;16.70;12.30;;;15.20;99.90;;;;;;5095809;28;20444;-71
2021/07/01 07:51:54;;;;;;;17.00;11.67;;;15.30;99.90;;;;;;5096577;28;20414;-71
2021/07/01 07:54:25;;;;;;;17.50;11.40;;;15.40;99.90;;;;;;5094911;28;20472;-71
2021/07/01 07:56:54;;;;;;;14.73;11.67;;;15.40;99.90;;;;;;5092927;28;20462;-72
2021/07/01 07:59:22;;;;;;;13.73;11.10;;;15.50;99.90;;;;;;5095008;28;20518;-71
2021/07/01 08:01:50;;;;;;;14.33;10.43;;;15.60;99.90;;;;;;5095618;28;20829;-71
2021/07/01 08:04:19;;;;;;;15.60;11.40;;;15.60;99.90;;;;;;5103381;28;20403;-71
2021/07/01 08:06:47;;;;;;;18.40;12.17;;;15.80;99.90;;;;;;5094015;28;20451;-71
2021/07/01 08:09:13;;;;;;;13.27;10.33;;;15.80;99.90;;;;;;5077255;28;20793;-71
2021/07/01 08:11:42;;;;;;;19.57;11.70;;;15.90;99.90;;;;;;5074835;28;20576;-71
2021/07/01 08:14:08;;;;;;;14.67;11.10;;;16.00;99.90;;;;;;5074679;28;20415;-70
2021/07/01 08:16:34;;;;;;;14.33;9.73;;;16.00;99.90;;;;;;5079611;28;20443;-71
2021/07/01 08:19:00;;;;;;;14.80;10.23;;;16.00;99.90;;;;;;5095248;28;20442;-71
2021/07/01 08:21:27;;;;;;;15.93;11.73;;;15.90;99.90;;;;;;5099202;28;20429;-71
2021/07/01 08:23:53;;;;;;;14.43;11.07;;;15.60;99.90;;;;;;5100598;28;20179;-70
2021/07/01 08:26:19;;;;;;;18.83;12.50;;;15.50;99.90;;;;;;5097041;28;20462;-71
2021/07/01 08:28:45;;;;;;;17.80;12.00;;;15.50;99.90;;;;;;5078029;28;20217;-71
2021/07/01 08:31:18;;;;;;;14.93;11.53;;;15.40;99.90;;;;;;5073970;28;20165;-71
2021/07/01 08:33:49;;;;;;;14.90;11.70;;;15.40;99.90;;;;;;5073833;28;20404;-71
2021/07/01 08:36:20;;;;;;;18.60;12.10;;;15.30;99.90;;;;;;5073693;28;20431;-71
2021/07/01 08:38:48;;;;;;;15.10;11.27;;;15.20;99.90;;;;;;5085299;28;20628;-71
2021/07/01 08:41:25;;;;;;;17.50;11.00;;;15.30;99.90;;;;;;5094252;28;20403;-72
2021/07/01 08:43:54;;;;;;;14.00;10.47;;;15.40;99.90;;;;;;5093650;28;20461;-72
2021/07/01 08:46:26;;;;;;;15.87;10.67;;;15.40;99.90;;;;;;5095394;28;20778;-72
2021/07/01 08:49:12;;;;;;;16.33;10.77;;;15.50;99.90;;;;;;5096607;28;20829;-72
2021/07/01 08:51:46;;;;;;;17.23;11.63;;;15.50;99.90;;;;;;5074194;28;20435;-72
2021/07/01 08:54:24;;;;;;;14.87;11.33;;;15.50;99.90;;;;;;5074967;28;20384;-72
2021/07/01 08:56:52;;;;;;;15.70;11.37;;;15.40;99.90;;;;;;5074097;28;20423;-73
2021/07/01 08:59:19;;;;;;;15.93;11.70;;;15.50;99.90;;;;;;5079102;28;20429;-71
2021/07/01 09:01:54;;;;;;;15.13;11.20;;;15.60;99.90;;;;;;5094170;28;20414;-71
2021/07/01 09:04:22;;;;;;;14.97;11.67;;;15.70;99.90;;;;;;5093665;28;20478;-72
2021/07/01 09:06:55;;;;;;;23.83;12.20;;;15.80;99.90;;;;;;5093697;28;20447;-71
2021/07/01 09:09:27;;;;;;;14.07;11.50;;;15.90;99.90;;;;;;5092973;28;20421;-72
2021/07/01 09:11:53;;;;;;;13.57;10.97;;;15.90;99.90;;;;;;5094822;28;20391;-71
2021/07/01 09:14:23;;;;;;;16.47;11.50;;;16.00;99.90;;;;;;5094832;28;20410;-72
2021/07/01 09:16:50;;;;;;;17.83;11.77;;;16.10;99.90;;;;;;5094566;28;20258;-71
2021/07/01 09:19:16;;;;;;;15.50;12.23;;;16.00;99.90;;;;;;5094003;28;21013;-71
2021/07/01 09:21:42;;;;;;;13.67;11.30;;;15.90;99.90;;;;;;5079138;28;21000;-71
2021/07/01 09:24:12;;;;;;;11.70;10.37;;;15.90;99.90;;;;;;5072937;28;20461;-71
2021/07/01 09:26:41;;;;;;;14.33;10.60;;;15.90;99.90;;;;;;5073381;28;20505;-71
2021/07/01 09:29:08;;;;;;;13.67;10.43;;;15.90;99.90;;;;;;5087589;28;20792;-71
2021/07/01 09:31:34;;;;;;;14.93;10.67;;;15.80;99.90;;;;;;5097155;28;20401;-70
2021/07/01 09:34:01;;;;;;;15.80;10.37;;;15.60;99.90;;;;;;5097560;28;20872;-71
2021/07/01 09:36:27;;;;;;;14.57;9.90;;;15.60;99.90;;;;;;5097465;28;20438;-71
2021/07/01 09:38:54;;;;;;;12.40;9.20;;;15.70;99.90;;;;;;5091880;28;20450;-71
2021/07/01 09:41:23;;;;;;;13.27;10.80;;;15.70;99.90;;;;;;5076688;28;20188;-71
2021/07/01 09:43:49;;;;;;;12.23;9.83;;;15.50;99.90;;;;;;5078195;28;20411;-71
2021/07/01 09:46:19;;;;;;;13.90;9.27;;;15.50;99.90;;;;;;5077020;28;20458;-71
2021/07/01 09:48:48;;;;;;;12.63;9.87;;;15.60;99.90;;;;;;5079645;28;20403;-71
2021/07/01 09:51:14;;;;;;;12.83;9.73;;;15.70;99.90;;;;;;5080276;28;20431;-71
2021/07/01 09:53:40;;;;;;;10.60;9.30;;;15.70;99.90;;;;;;5076736;28;20400;-72
2021/07/01 09:56:08;;;;;;;13.50;9.83;;;15.60;99.90;;;;;;5076622;28;20423;-71
2021/07/01 09:58:49;;;;;;;12.97;10.13;;;15.60;99.90;;;;;;5076595;28;20428;-71
2021/07/01 10:01:29;;;;;;;13.70;9.70;;;15.40;99.90;;;;;;5077784;28;20514;-71
2021/07/01 10:03:57;;;;;;;11.37;9.17;;;15.50;99.90;;;;;;5076233;28;20391;-70
2021/07/01 10:06:23;;;;;;;14.17;10.50;;;15.50;99.90;;;;;;5076823;28;20812;-71
2021/07/01 10:08:50;;;;;;;13.17;9.23;;;15.60;99.90;;;;;;5077089;28;20412;-71
2021/07/01 10:11:28;;;;;;;13.70;10.30;;;15.70;99.90;;;;;;5077690;28;20500;-71
2021/07/01 10:13:54;;;;;;;11.20;9.30;;;15.60;99.90;;;;;;5076295;28;20417;-71
2021/07/01 10:16:28;;;;;;;14.93;8.77;;;15.60;99.90;;;;;;5076953;28;20440;-71
2021/07/01 10:18:55;;;;;;;11.47;8.20;;;15.60;99.90;;;;;;5075953;28;20419;-71
2021/07/01 10:21:21;;;;;;;13.40;9.27;;;15.60;99.90;;;;;;5083033;28;20541;-71
2021/07/01 10:23:49;;;;;;;12.37;8.53;;;15.60;99.90;;;;;;5096342;28;20442;-71
2021/07/01 10:26:20;;;;;;;12.30;9.40;;;15.60;99.90;;;;;;5096286;28;20196;-71
2021/07/01 10:29:06;;;;;;;11.67;8.53;;;15.70;99.90;;;;;;5096634;28;20410;-71
2021/07/01 10:31:52;;;;;;;9.97;8.30;;;15.80;99.90;;;;;;5093155;28;20412;-72
2021/07/01 10:34:19;;;;;;;10.93;8.33;;;16.00;99.90;;;;;;5096712;28;20403;-72
2021/07/01 10:36:44;;;;;;;12.47;8.63;;;15.90;99.90;;;;;;5098100;28;20447;-72
2021/07/01 10:39:10;;;;;;;11.13;9.00;;;15.90;99.90;;;;;;5095976;28;20459;-72
2021/07/01 10:41:41;;;;;;;11.33;8.67;;;15.90;99.90;;;;;;5096658;28;20185;-72
2021/07/01 10:44:19;;;;;;;11.23;8.60;;;15.90;99.90;;;;;;5100899;28;20230;-72
2021/07/01 10:46:48;;;;;;;12.73;8.20;;;16.00;99.90;;;;;;5116151;28;20461;-72
2021/07/01 10:49:15;;;;;;;10.63;8.47;;;16.00;99.90;;;;;;5116356;28;20422;-71
2021/07/01 10:51:57;;;;;;;10.70;8.27;;;15.90;99.90;;;;;;5115710;28;20904;-71
2021/07/01 10:54:24;;;;;;;15.00;8.83;;;15.90;99.90;;;;;;5114942;28;20436;-71
2021/07/01 10:56:54;;;;;;;11.02;8.82;;;16.00;99.90;;;;;;5114805;28;20420;-72
2021/07/01 10:59:19;;;;;;;10.70;8.47;;;16.20;99.90;;;;;;5115929;28;20199;-72
2021/07/01 11:01:47;;;;;;;10.30;8.00;;;16.10;99.90;;;;;;5115075;28;20414;-72
2021/07/01 11:04:15;;;;;;;12.03;8.30;;;16.20;99.90;;;;;;5094746;28;20177;-72
2021/07/01 11:06:56;;;;;;;13.47;8.90;;;16.20;99.90;;;;;;5095971;28;20457;-71
2021/07/01 11:09:22;;;;;;;14.33;8.73;;;16.30;99.90;;;;;;5096086;28;20398;-72
2021/07/01 11:11:59;;;;;;;11.33;8.50;;;16.30;99.90;;;;;;5095954;28;20410;-71
2021/07/01 11:14:40;;;;;;;12.67;9.13;;;16.30;99.90;;;;;;5091202;28;20450;-71
2021/07/01 11:17:06;;;;;;;11.17;8.63;;;16.20;99.90;;;;;;5075700;28;20404;-71
2021/07/01 11:19:40;;;;;;;18.63;9.47;;;16.30;99.90;;;;;;5076043;28;20411;-71
2021/07/01 11:22:06;;;;;;;12.50;9.40;;;16.20;99.90;;;;;;5075678;28;20434;-71
2021/07/01 11:24:32;;;;;;;13.47;10.10;;;16.30;99.90;;;;;;5076444;28;20412;-71
2021/07/01 11:27:00;;;;;;;16.70;10.97;;;16.30;99.90;;;;;;5075678;28;20460;-71
2021/07/01 11:29:41;;;;;;;14.10;10.00;;;16.30;99.90;;;;;;5075854;28;20623;-71
2021/07/01 11:32:27;;;;;;;12.87;8.60;;;16.30;99.90;;;;;;5076287;28;20416;-71
2021/07/01 11:34:56;;;;;;;14.73;9.60;;;16.30;99.90;;;;;;5077744;28;20423;-72
2021/07/01 11:37:39;;;;;;;19.80;10.73;;;16.40;99.90;;;;;;5098211;28;20426;-72
2021/07/01 11:40:12;;;;;;;16.50;11.10;;;16.40;99.90;;;;;;5102648;28;20419;-71
2021/07/01 11:42:38;;;;;;;13.40;9.40;;;16.40;99.90;;;;;;5095584;28;20407;-71
2021/07/01 11:45:05;;;;;;;16.43;10.00;;;16.40;99.90;;;;;;5095046;28;20505;-71
2021/07/01 11:47:33;;;;;;;12.60;9.90;;;16.20;99.90;;;;;;5093379;28;20451;-72
2021/07/01 11:50:00;;;;;;;21.40;12.60;;;16.20;99.90;;;;;;5094801;28;20419;-71
2021/07/01 11:52:30;;;;;;;14.17;10.80;;;16.30;99.90;;;;;;5094377;28;20409;-71
2021/07/01 11:54:58;;;;;;;17.80;11.00;;;16.30;99.90;;;;;;5095022;28;20391;-71
2021/07/01 11:57:26;;;;;;;16.63;9.33;;;16.20;99.90;;;;;;5093285;28;20442;-71
2021/07/01 11:59:52;;;;;;;14.93;10.47;;;16.20;99.90;;;;;;5093951;28;20419;-71
2021/07/01 12:02:18;;;;;;;17.43;11.77;;;16.30;99.90;;;;;;5098916;28;20415;-71
2021/07/01 12:04:45;;;;;;;13.87;11.63;;;16.20;99.90;;;;;;5097706;28;20185;-70
2021/07/01 12:07:22;;;;;;;15.43;10.90;;;16.20;99.90;;;;;;5094251;28;20615;-71
2021/07/01 12:09:48;;;;;;;15.03;11.90;;;16.20;99.90;;;;;;5074168;28;20438;-71
2021/07/01 12:12:17;;;;;;;16.00;11.23;;;16.20;99.90;;;;;;5073945;28;20404;-71
2021/07/01 12:15:03;;;;;;;14.10;11.43;;;16.20;99.90;;;;;;5073830;28;20410;-71
2021/07/01 12:18:16;;;;;;;15.07;10.27;;;16.10;99.90;;;;;;5074001;28;20756;-71
2021/07/01 12:20:50;;;;;;;14.97;11.97;;;16.20;99.90;;;;;;5091046;28;20521;-72
2021/07/01 12:23:16;;;;;;;16.33;13.33;;;16.30;99.90;;;;;;5093457;28;20438;-71
2021/07/01 12:25:46;;;;;;;14.57;12.97;;;16.20;99.90;;;;;;5094059;28;20423;-71
2021/07/01 12:28:24;;;;;;;13.63;10.80;;;16.30;99.90;;;;;;5094065;28;20438;-71
2021/07/01 12:31:08;;;;;;;15.48;12.25;;;16.30;99.90;;;;;;5091547;28;20419;-71
2021/07/01 12:33:46;;;;;;;13.13;10.50;;;16.50;99.90;;;;;;5093658;28;20211;-71
2021/07/01 12:36:44;;;;;;;14.23;11.00;;;16.50;99.90;;;;;;5093508;28;20986;-71